Aviation Digital Data Service (ADDS)

Output produced by METARs form (1945 UTC 18 October 2018)
found at http://aviationweather.gov/metar/data/
 
KCLT 181852Z 03009KT 10SM SCT250 19/02 A3038 RMK AO2 SLP283 T01940017
KCLT 181736Z 1818/1924 05007KT P6SM FEW250 
     FM190000 06004KT P6SM FEW250 
     FM191500 11004KT P6SM SKC 
     FM191700 15004KT P6SM FEW250 
     FM191800 18005KT P6SM SCT040 BKN250